Time;durP1;ratioP1;P1;durP2;ratioP2;P2;SDS_P1;SDS_P2;PMS_P1;PMS_P2;Temp;Humidity;BMP_temperature;BMP_pressure;BME280_temperature;BME280_humidity;BME280_pressure;Samples;Min_cycle;Max_cycle;Signal;HPM_P1;HPM_P2
2021/04/27 00:01:04;;;;;;;16.38;8.35;;;9.40;52.70;;;;;;5073712;28;20020;-76
2021/04/27 00:03:30;;;;;;;14.05;7.72;;;9.10;53.60;;;;;;5107690;28;20021;-76
2021/04/27 00:05:56;;;;;;;15.80;8.23;;;8.90;54.10;;;;;;5056909;28;20020;-75
2021/04/27 00:08:22;;;;;;;11.68;8.20;;;8.90;54.50;;;;;;5073690;28;20076;-75
2021/04/27 00:10:47;;;;;;;13.70;7.85;;;8.90;54.40;;;;;;5073618;28;20106;-76
2021/04/27 00:13:13;;;;;;;15.43;7.82;;;9.00;54.20;;;;;;5074043;28;20013;-76
2021/04/27 00:15:40;;;;;;;14.25;6.50;;;9.00;54.40;;;;;;5107351;28;20387;-76
2021/04/27 00:18:05;;;;;;;19.75;8.02;;;8.90;54.50;;;;;;5056957;28;20028;-76
2021/04/27 00:20:31;;;;;;;14.32;8.02;;;8.80;54.70;;;;;;5092962;28;20020;-76
2021/04/27 00:22:58;;;;;;;13.30;7.55;;;8.80;54.80;;;;;;5077360;28;20020;-75
2021/04/27 00:25:25;;;;;;;13.80;8.20;;;8.70;55.40;;;;;;5094128;28;20016;-76
2021/04/27 00:27:54;;;;;;;14.85;7.95;;;8.50;55.80;;;;;;5095357;28;20028;-76
2021/04/27 00:30:23;;;;;;;11.52;7.88;;;8.50;56.20;;;;;;5095543;28;20028;-75
2021/04/27 00:32:49;;;;;;;14.70;7.68;;;8.40;56.20;;;;;;5095538;28;20020;-76
2021/04/27 00:35:16;;;;;;;14.10;7.28;;;8.50;56.20;;;;;;5095157;28;20376;-76
2021/04/27 00:37:43;;;;;;;16.27;7.28;;;8.60;56.00;;;;;;5095152;28;20024;-76
2021/04/27 00:40:11;;;;;;;11.43;7.47;;;8.50;55.80;;;;;;5077216;28;20182;-76
2021/04/27 00:42:39;;;;;;;12.98;7.28;;;8.40;56.20;;;;;;5077170;28;20058;-76
2021/04/27 00:45:10;;;;;;;15.88;8.07;;;8.40;56.10;;;;;;5110841;28;20062;-75
2021/04/27 00:47:36;;;;;;;20.33;8.73;;;8.30;56.30;;;;;;5077013;28;20499;-75
2021/04/27 00:50:07;;;;;;;13.32;6.85;;;8.30;56.20;;;;;;5095209;28;20031;-76
2021/04/27 00:52:33;;;;;;;18.98;7.53;;;8.20;56.20;;;;;;5094821;28;20460;-75
2021/04/27 00:54:58;;;;;;;15.35;6.53;;;8.40;56.10;;;;;;5093488;28;20075;-75
2021/04/27 00:57:24;;;;;;;11.50;6.95;;;8.60;55.20;;;;;;5094565;28;20044;-76
2021/04/27 00:59:52;;;;;;;15.30;8.73;;;8.60;55.10;;;;;;5094718;28;20024;-76
2021/04/27 01:02:18;;;;;;;14.07;7.03;;;8.90;54.80;;;;;;5094695;28;20016;-76
2021/04/27 01:04:44;;;;;;;12.80;7.68;;;8.60;55.20;;;;;;5076615;28;20460;-76
2021/04/27 01:07:12;;;;;;;21.33;8.38;;;8.50;55.50;;;;;;5094583;28;20126;-76
2021/04/27 01:10:02;;;;;;;14.40;7.63;;;8.40;55.80;;;;;;5094611;28;20032;-76
2021/04/27 01:12:32;;;;;;;15.45;7.53;;;8.20;56.30;;;;;;5094623;28;20020;-75
2021/04/27 01:15:03;;;;;;;16.52;8.60;;;8.30;56.20;;;;;;5059573;28;20027;-76
2021/04/27 01:17:30;;;;;;;14.45;8.15;;;8.20;56.40;;;;;;5059530;28;20116;-74
2021/04/27 01:20:08;;;;;;;15.43;8.48;;;8.30;56.30;;;;;;5076366;28;20565;-76
2021/04/27 01:22:57;;;;;;;20.27;9.10;;;8.30;56.20;;;;;;5110107;28;20020;-75
2021/04/27 01:25:35;;;;;;;18.40;8.52;;;8.10;56.90;;;;;;5094220;28;20027;-76
2021/04/27 01:28:07;;;;;;;18.88;8.80;;;8.10;57.00;;;;;;5094249;28;20052;-76
2021/04/27 01:30:38;;;;;;;18.73;8.95;;;8.00;57.10;;;;;;5110035;28;20035;-75
2021/04/27 01:33:09;;;;;;;12.20;7.75;;;8.10;57.30;;;;;;5092763;28;20056;-75
2021/04/27 01:35:36;;;;;;;15.20;7.90;;;8.10;57.10;;;;;;5109620;28;20118;-76
2021/04/27 01:38:03;;;;;;;16.20;7.95;;;8.30;56.70;;;;;;5075915;28;20026;-75
2021/04/27 01:40:30;;;;;;;18.17;8.85;;;8.20;56.80;;;;;;5076090;28;20031;-76
2021/04/27 01:42:56;;;;;;;22.35;7.95;;;8.10;57.20;;;;;;5093947;28;20016;-75
2021/04/27 01:45:22;;;;;;;13.85;7.55;;;8.00;57.10;;;;;;5093915;28;20050;-75
2021/04/27 01:47:48;;;;;;;25.55;8.30;;;7.80;57.50;;;;;;5075872;28;20035;-74
2021/04/27 01:50:14;;;;;;;21.25;8.73;;;7.70;57.90;;;;;;5093764;28;20020;-75
2021/04/27 01:52:40;;;;;;;13.02;7.32;;;7.80;57.80;;;;;;5093716;28;20028;-75
2021/04/27 01:55:07;;;;;;;8.63;6.25;;;7.90;57.80;;;;;;5075529;28;20403;-76
2021/04/27 01:57:34;;;;;;;20.40;6.95;;;8.10;57.30;;;;;;5075210;28;20031;-75
2021/04/27 01:59:59;;;;;;;14.40;7.53;;;8.10;57.00;;;;;;5109434;28;20024;-75
2021/04/27 02:02:25;;;;;;;15.63;7.32;;;7.80;57.50;;;;;;5093555;28;20360;-76
2021/04/27 02:04:51;;;;;;;9.98;7.22;;;7.90;57.90;;;;;;5109332;28;20020;-76
2021/04/27 02:07:17;;;;;;;12.27;6.68;;;7.80;57.60;;;;;;5093315;28;20035;-75
2021/04/27 02:09:43;;;;;;;14.05;7.90;;;7.80;57.80;;;;;;5092275;28;20074;-75
2021/04/27 02:12:09;;;;;;;15.10;7.03;;;7.80;57.70;;;;;;5075378;28;20020;-76
2021/04/27 02:14:35;;;;;;;14.55;7.22;;;7.80;57.80;;;;;;5109034;28;20047;-76
2021/04/27 02:17:19;;;;;;;18.10;7.10;;;7.70;58.10;;;;;;5108914;28;20028;-76
2021/04/27 02:19:45;;;;;;;12.32;7.28;;;7.70;58.50;;;;;;5075156;28;20078;-75
2021/04/27 02:22:12;;;;;;;11.45;8.38;;;7.70;58.30;;;;;;5058654;28;20549;-76
2021/04/27 02:24:39;;;;;;;12.18;7.28;;;7.60;58.30;;;;;;5093236;28;20051;-75
2021/04/27 02:27:06;;;;;;;16.08;7.88;;;7.80;58.30;;;;;;5092888;28;20063;-75
2021/04/27 02:29:35;;;;;;;17.55;8.07;;;7.80;57.80;;;;;;5093104;28;20608;-75
2021/04/27 02:32:01;;;;;;;18.73;7.07;;;7.60;58.30;;;;;;5074841;28;20032;-75
2021/04/27 02:34:28;;;;;;;13.00;7.47;;;7.30;59.00;;;;;;5108607;28;20032;-75
2021/04/27 02:36:55;;;;;;;22.65;8.18;;;7.30;59.40;;;;;;5093048;28;20467;-76
2021/04/27 02:39:21;;;;;;;23.73;8.88;;;7.20;59.70;;;;;;5092878;28;20128;-76
2021/04/27 02:41:47;;;;;;;14.82;7.00;;;7.10;59.90;;;;;;5074562;28;20024;-76
2021/04/27 02:44:14;;;;;;;22.48;7.57;;;7.10;59.70;;;;;;5074065;28;20056;-75
2021/04/27 02:46:43;;;;;;;16.23;7.43;;;7.10;59.90;;;;;;5108330;28;20020;-76
2021/04/27 02:49:10;;;;;;;11.25;7.00;;;7.30;59.80;;;;;;5092704;28;20034;-76
2021/04/27 02:51:36;;;;;;;15.35;6.85;;;7.00;59.80;;;;;;5074616;28;20372;-75
2021/04/27 02:54:03;;;;;;;12.52;7.25;;;6.70;61.00;;;;;;5092510;28;20036;-76
2021/04/27 02:56:29;;;;;;;10.95;6.88;;;6.70;61.70;;;;;;5092132;28;20024;-75
2021/04/27 02:58:54;;;;;;;15.02;8.60;;;7.00;61.20;;;;;;5092614;28;20418;-76
2021/04/27 03:01:21;;;;;;;12.18;7.20;;;7.20;60.40;;;;;;5108353;28;20078;-75
2021/04/27 03:03:47;;;;;;;12.27;7.35;;;7.30;59.80;;;;;;5092465;28;20024;-76
2021/04/27 03:06:13;;;;;;;16.65;7.57;;;6.90;60.50;;;;;;5057569;28;20039;-75
2021/04/27 03:08:38;;;;;;;16.45;7.75;;;6.90;61.20;;;;;;5074289;28;20471;-76
2021/04/27 03:11:04;;;;;;;18.50;6.90;;;6.80;61.80;;;;;;5092586;28;20063;-76
2021/04/27 03:13:30;;;;;;;13.68;6.93;;;6.80;61.50;;;;;;5092327;28;20099;-75
2021/04/27 03:15:56;;;;;;;17.77;8.00;;;6.90;61.30;;;;;;5057241;28;20019;-76
2021/04/27 03:18:22;;;;;;;15.70;7.55;;;7.00;61.20;;;;;;5108002;28;20020;-76
2021/04/27 03:20:48;;;;;;;16.60;8.35;;;7.20;60.50;;;;;;5074070;28;20541;-75
2021/04/27 03:23:14;;;;;;;18.17;7.53;;;7.20;60.10;;;;;;5090903;28;20017;-75
2021/04/27 03:25:40;;;;;;;18.63;8.52;;;7.30;60.10;;;;;;5092044;28;20403;-75
2021/04/27 03:28:08;;;;;;;13.70;7.70;;;7.00;60.50;;;;;;5107845;28;20142;-75
2021/04/27 03:30:34;;;;;;;13.23;8.13;;;6.90;61.10;;;;;;5074165;28;20036;-76
2021/04/27 03:33:00;;;;;;;14.07;7.68;;;6.90;61.40;;;;;;5073917;28;20024;-75
2021/04/27 03:35:26;;;;;;;12.82;7.90;;;6.70;61.50;;;;;;5107689;28;20031;-75
2021/04/27 03:37:52;;;;;;;16.40;8.57;;;6.60;62.30;;;;;;5091820;28;20095;-75
2021/04/27 03:40:18;;;;;;;17.40;8.48;;;6.70;62.70;;;;;;5074032;28;20020;-75
2021/04/27 03:42:44;;;;;;;19.13;9.30;;;6.90;61.50;;;;;;5073900;28;20081;-76
2021/04/27 03:45:14;;;;;;;19.00;8.25;;;6.90;61.90;;;;;;5091962;28;20039;-75
2021/04/27 03:47:40;;;;;;;14.10;7.65;;;7.00;61.40;;;;;;5073712;28;20106;-76
2021/04/27 03:50:08;;;;;;;13.82;7.53;;;7.10;61.20;;;;;;5092054;28;20027;-75
2021/04/27 03:52:34;;;;;;;16.23;8.18;;;7.20;60.70;;;;;;5091914;28;20028;-75
2021/04/27 03:55:00;;;;;;;14.40;7.82;;;7.30;60.30;;;;;;5090534;28;20039;-75
2021/04/27 03:57:25;;;;;;;18.65;8.48;;;7.30;60.00;;;;;;5095995;28;20020;-76
2021/04/27 03:59:51;;;;;;;16.15;8.65;;;7.00;61.40;;;;;;5061220;28;20024;-76
2021/04/27 04:02:17;;;;;;;13.07;8.23;;;7.00;61.70;;;;;;5095914;28;20024;-76
2021/04/27 04:04:43;;;;;;;14.75;8.40;;;7.10;61.20;;;;;;5061002;28;20020;-75
2021/04/27 04:07:09;;;;;;;18.67;8.50;;;7.00;61.40;;;;;;5077412;28;20373;-75
2021/04/27 04:09:34;;;;;;;11.95;7.53;;;7.20;61.30;;;;;;5077648;28;20028;-76
2021/04/27 04:12:00;;;;;;;13.38;8.60;;;7.20;61.00;;;;;;5077551;28;20028;-76
2021/04/27 04:14:26;;;;;;;15.40;8.25;;;7.20;61.10;;;;;;5095627;28;20020;-76
2021/04/27 04:16:52;;;;;;;14.23;7.35;;;7.00;61.40;;;;;;5095321;28;20016;-75
2021/04/27 04:19:17;;;;;;;16.27;9.65;;;6.70;62.20;;;;;;5095608;28;20020;-75
2021/04/27 04:21:43;;;;;;;16.58;7.93;;;6.50;63.20;;;;;;5095459;28;20476;-75
2021/04/27 04:24:11;;;;;;;27.48;10.77;;;6.60;63.30;;;;;;5060705;28;20610;-75
2021/04/27 04:26:38;;;;;;;17.80;9.43;;;6.70;63.10;;;;;;5095377;28;20358;-76
2021/04/27 04:29:04;;;;;;;30.05;10.88;;;6.90;62.70;;;;;;5060524;28;20433;-76
2021/04/27 04:31:30;;;;;;;17.10;9.27;;;6.70;62.40;;;;;;5077177;28;20028;-75
2021/04/27 04:33:56;;;;;;;16.55;8.70;;;6.70;63.60;;;;;;5076952;28;20036;-76
2021/04/27 04:36:22;;;;;;;19.88;10.63;;;6.70;63.80;;;;;;5077215;28;20012;-75
2021/04/27 04:38:47;;;;;;;15.07;9.88;;;6.50;64.40;;;;;;5076995;28;20104;-76
2021/04/27 04:41:13;;;;;;;22.80;10.18;;;6.70;64.00;;;;;;5060390;28;20103;-76
2021/04/27 04:43:39;;;;;;;16.58;10.43;;;6.80;63.60;;;;;;5077122;28;20107;-76
2021/04/27 04:46:05;;;;;;;18.48;10.18;;;6.90;63.10;;;;;;5059996;28;20020;-75
2021/04/27 04:48:30;;;;;;;22.52;10.73;;;6.80;63.20;;;;;;5077006;28;20020;-76
2021/04/27 04:50:56;;;;;;;20.42;9.68;;;6.60;63.70;;;;;;5095043;28;20019;-76
2021/04/27 04:53:22;;;;;;;16.88;10.60;;;6.20;65.40;;;;;;5110501;28;20234;-75
2021/04/27 04:55:48;;;;;;;15.95;9.70;;;6.40;65.90;;;;;;5094756;28;20024;-75
2021/04/27 04:58:14;;;;;;;15.43;10.07;;;6.40;65.50;;;;;;5110315;28;20024;-76
2021/04/27 05:00:40;;;;;;;18.63;11.30;;;6.20;67.20;;;;;;5094793;28;20087;-75
2021/04/27 05:03:05;;;;;;;19.98;11.00;;;6.20;66.80;;;;;;5076481;28;20024;-75
2021/04/27 05:05:31;;;;;;;22.77;10.50;;;6.40;66.60;;;;;;5094690;28;20025;-75
2021/04/27 05:10:43;;;;;;;14.38;9.90;;;6.80;64.70;;;;;;5039941;28;20075;-73
2021/04/27 05:13:09;;;;;;;18.58;10.00;;;7.00;64.90;;;;;;5073221;28;20052;-73
2021/04/27 05:15:35;;;;;;;26.85;12.93;;;6.90;65.00;;;;;;5054519;28;20032;-73
2021/04/27 05:18:01;;;;;;;22.30;11.23;;;6.80;65.00;;;;;;5072026;28;20151;-73
2021/04/27 05:20:27;;;;;;;18.95;11.02;;;6.40;67.10;;;;;;5054776;28;20038;-73
2021/04/27 05:22:52;;;;;;;23.58;11.20;;;6.50;67.40;;;;;;5071811;28;20037;-73
2021/04/27 05:25:19;;;;;;;18.90;11.55;;;6.60;67.70;;;;;;5071516;28;20021;-73
2021/04/27 05:27:45;;;;;;;18.67;10.05;;;6.50;68.20;;;;;;5054487;28;20116;-73
2021/04/27 05:30:11;;;;;;;23.50;10.90;;;6.80;67.50;;;;;;5071875;28;20051;-73
2021/04/27 05:32:37;;;;;;;22.13;11.05;;;6.70;67.40;;;;;;5072753;28;20767;-73
2021/04/27 05:35:05;;;;;;;18.70;10.35;;;6.70;67.40;;;;;;5071580;28;20115;-73
2021/04/27 05:37:31;;;;;;;23.35;11.20;;;6.70;67.40;;;;;;5073116;28;20013;-73
2021/04/27 05:39:56;;;;;;;16.77;10.20;;;6.90;67.50;;;;;;5074050;28;20531;-73
2021/04/27 05:42:22;;;;;;;26.35;10.07;;;6.80;67.20;;;;;;5075036;28;20074;-73
2021/04/27 05:44:48;;;;;;;21.33;11.20;;;6.80;67.80;;;;;;5070839;28;20093;-73
2021/04/27 05:47:14;;;;;;;18.63;10.88;;;6.90;67.70;;;;;;5073319;28;20048;-73
2021/04/27 05:49:40;;;;;;;18.45;11.68;;;6.80;68.30;;;;;;5072173;28;20021;-73
2021/04/27 05:52:06;;;;;;;17.48;10.40;;;6.80;68.70;;;;;;5071420;28;20082;-73
2021/04/27 05:54:32;;;;;;;18.50;11.50;;;6.80;67.90;;;;;;5074514;28;20388;-73
2021/04/27 05:56:59;;;;;;;22.08;11.52;;;6.80;68.60;;;;;;5070767;28;20048;-73
2021/04/27 05:59:25;;;;;;;19.15;10.63;;;6.90;68.50;;;;;;5072079;28;20050;-73
2021/04/27 06:01:51;;;;;;;22.58;12.32;;;6.90;68.30;;;;;;5070635;28;20144;-73
2021/04/27 06:04:17;;;;;;;17.58;10.80;;;7.00;68.30;;;;;;5054368;28;20032;-73
2021/04/27 06:06:43;;;;;;;24.70;10.68;;;6.90;69.30;;;;;;5071681;28;20298;-73
2021/04/27 06:09:09;;;;;;;19.02;10.70;;;6.80;69.20;;;;;;5071660;28;20035;-73
2021/04/27 06:11:36;;;;;;;19.20;10.93;;;7.10;69.50;;;;;;5071749;28;20033;-73
2021/04/27 06:14:04;;;;;;;20.60;11.10;;;7.00;68.40;;;;;;5072090;28;20499;-73
2021/04/27 06:16:30;;;;;;;16.95;10.63;;;6.90;68.90;;;;;;5069826;28;20031;-73
2021/04/27 06:18:56;;;;;;;17.58;11.02;;;7.00;69.30;;;;;;5071529;28;20078;-73
2021/04/27 06:21:22;;;;;;;15.05;10.40;;;7.10;68.90;;;;;;5071805;28;20016;-73
2021/04/27 06:23:48;;;;;;;16.52;10.93;;;7.10;68.70;;;;;;5070426;28;20028;-73
2021/04/27 06:26:14;;;;;;;17.85;10.48;;;7.00;69.10;;;;;;5073169;28;20095;-73
2021/04/27 06:28:40;;;;;;;23.52;10.98;;;7.00;70.00;;;;;;5053316;28;20116;-73
2021/04/27 06:31:05;;;;;;;17.65;10.57;;;7.00;69.80;;;;;;5071583;28;20100;-74
2021/04/27 06:33:31;;;;;;;19.05;10.65;;;7.20;69.40;;;;;;5071556;28;20095;-73
2021/04/27 06:35:57;;;;;;;18.40;10.43;;;7.30;68.90;;;;;;5070270;28;20016;-73
2021/04/27 06:38:23;;;;;;;19.13;11.82;;;7.40;68.70;;;;;;5070319;28;20448;-73
2021/04/27 06:40:52;;;;;;;21.70;10.65;;;7.40;68.70;;;;;;5069855;28;20023;-73
2021/04/27 06:43:19;;;;;;;21.20;10.32;;;7.60;68.50;;;;;;5071418;28;20438;-73
2021/04/27 06:45:45;;;;;;;25.30;11.48;;;7.80;67.90;;;;;;5070998;28;20112;-73
2021/04/27 06:48:11;;;;;;;23.70;10.43;;;7.90;67.60;;;;;;5071558;28;20515;-73
2021/04/27 06:50:39;;;;;;;20.00;11.70;;;8.10;67.60;;;;;;5070407;28;20518;-73
2021/04/27 06:53:05;;;;;;;17.83;9.90;;;8.00;67.10;;;;;;5069943;28;20395;-73
2021/04/27 06:55:32;;;;;;;16.20;10.60;;;8.30;66.80;;;;;;5071374;28;20358;-73
2021/04/27 06:58:07;;;;;;;22.95;10.50;;;8.40;66.30;;;;;;5069021;28;20052;-73
2021/04/27 07:00:33;;;;;;;14.23;9.70;;;8.40;66.00;;;;;;5071099;28;20107;-73
2021/04/27 07:02:59;;;;;;;16.45;10.27;;;8.60;65.80;;;;;;5070777;28;20032;-73
2021/04/27 07:05:26;;;;;;;19.73;10.50;;;8.80;65.60;;;;;;5069988;28;20028;-73
2021/04/27 07:07:52;;;;;;;23.63;11.15;;;9.00;64.90;;;;;;5069144;28;20035;-74
2021/04/27 07:10:18;;;;;;;25.08;9.95;;;9.10;64.20;;;;;;5071155;28;20046;-73
2021/04/27 07:12:44;;;;;;;23.70;11.07;;;9.20;63.90;;;;;;5052992;28;20021;-73
2021/04/27 07:15:10;;;;;;;16.33;12.18;;;9.00;63.80;;;;;;5071052;28;20052;-73
2021/04/27 07:17:36;;;;;;;20.08;13.15;;;9.20;63.40;;;;;;5069563;28;20392;-73
2021/04/27 07:20:03;;;;;;;18.25;12.07;;;9.20;62.60;;;;;;5069248;28;20017;-73
2021/04/27 07:22:29;;;;;;;24.35;11.82;;;9.10;62.60;;;;;;5069747;28;20020;-73
2021/04/27 07:24:57;;;;;;;21.73;11.73;;;9.20;63.50;;;;;;5070659;28;20037;-72
2021/04/27 07:27:23;;;;;;;19.10;11.32;;;9.40;63.90;;;;;;5070578;28;20466;-72
2021/04/27 07:29:49;;;;;;;19.33;11.63;;;9.40;62.80;;;;;;5070456;28;20032;-72
2021/04/27 07:32:15;;;;;;;24.02;12.10;;;9.40;63.60;;;;;;5070862;28;20678;-72
2021/04/27 07:34:42;;;;;;;22.10;11.85;;;9.60;63.90;;;;;;5053507;28;20120;-75
2021/04/27 07:37:08;;;;;;;18.90;11.05;;;9.80;62.60;;;;;;5052237;28;20021;-74
2021/04/27 07:39:34;;;;;;;22.67;12.35;;;9.80;63.40;;;;;;5070907;28;20025;-74
2021/04/27 07:42:00;;;;;;;15.60;10.93;;;10.00;63.40;;;;;;5068970;28;20388;-74
2021/04/27 07:44:26;;;;;;;18.35;11.73;;;10.20;62.40;;;;;;5071006;28;20033;-74
2021/04/27 07:46:52;;;;;;;24.15;11.55;;;10.20;62.40;;;;;;5069096;28;20037;-74
2021/04/27 07:49:17;;;;;;;18.33;11.45;;;10.40;61.90;;;;;;5069805;28;20089;-74
2021/04/27 07:51:44;;;;;;;22.88;11.60;;;10.40;61.10;;;;;;5070998;28;20062;-73
2021/04/27 07:54:10;;;;;;;22.25;12.25;;;10.50;60.80;;;;;;5070249;28;20107;-74
2021/04/27 07:56:36;;;;;;;23.13;11.25;;;10.40;59.90;;;;;;5070542;28;20108;-74
2021/04/27 07:59:04;;;;;;;18.70;11.38;;;10.30;60.10;;;;;;5069205;28;20048;-73
2021/04/27 08:01:32;;;;;;;20.73;10.65;;;10.40;60.90;;;;;;5069263;28;20472;-74
2021/04/27 08:03:58;;;;;;;19.65;11.10;;;10.70;60.00;;;;;;5068893;28;20032;-74
2021/04/27 08:06:23;;;;;;;17.98;10.68;;;10.70;59.60;;;;;;5070520;28;20032;-74
2021/04/27 08:08:49;;;;;;;17.88;11.05;;;10.90;59.30;;;;;;5069208;28;20464;-74
2021/04/27 08:11:16;;;;;;;20.42;11.95;;;11.00;59.30;;;;;;5070269;28;20024;-74
2021/04/27 08:13:42;;;;;;;20.25;10.57;;;11.10;59.50;;;;;;5070480;28;20461;-74
2021/04/27 08:16:08;;;;;;;23.13;11.55;;;11.40;59.30;;;;;;5068708;28;20024;-74
2021/04/27 08:18:36;;;;;;;14.93;9.80;;;11.50;58.90;;;;;;5069106;28;20031;-74
2021/04/27 08:21:07;;;;;;;28.08;12.38;;;11.50;59.30;;;;;;5068907;28;20369;-73
2021/04/27 08:23:35;;;;;;;15.30;10.15;;;11.40;58.90;;;;;;5064939;28;20116;-74
2021/04/27 08:26:06;;;;;;;15.93;11.15;;;11.80;58.70;;;;;;5068970;28;20036;-74
2021/04/27 08:28:32;;;;;;;15.95;10.93;;;12.10;58.10;;;;;;5069379;28;20016;-74
2021/04/27 08:30:58;;;;;;;15.50;10.40;;;12.50;57.20;;;;;;5069143;28;20020;-74
2021/04/27 08:33:24;;;;;;;20.38;10.57;;;12.40;56.40;;;;;;5071493;28;20028;-74
2021/04/27 08:35:51;;;;;;;16.92;10.80;;;12.30;56.60;;;;;;5070190;28;20021;-74
2021/04/27 08:38:17;;;;;;;16.27;9.70;;;12.60;57.10;;;;;;5068511;28;20421;-74
2021/04/27 08:40:44;;;;;;;17.05;9.60;;;13.10;56.70;;;;;;5068844;28;20395;-74
2021/04/27 08:43:11;;;;;;;24.52;11.18;;;13.20;54.80;;;;;;5071640;28;20020;-74
2021/04/27 08:45:37;;;;;;;19.10;10.70;;;13.30;54.40;;;;;;5072463;28;20103;-74
2021/04/27 08:48:03;;;;;;;18.85;10.07;;;13.50;54.20;;;;;;5073984;28;20059;-74
2021/04/27 08:50:29;;;;;;;18.02;9.93;;;13.50;53.40;;;;;;5071885;28;20086;-74
2021/04/27 08:52:55;;;;;;;15.02;9.82;;;13.60;54.50;;;;;;5073613;28;20028;-74
2021/04/27 08:55:21;;;;;;;20.08;9.77;;;13.50;54.20;;;;;;5055279;28;20021;-74
2021/04/27 08:57:48;;;;;;;16.10;10.45;;;13.80;54.10;;;;;;5072483;28;20395;-74
2021/04/27 09:00:17;;;;;;;19.10;10.80;;;13.80;54.10;;;;;;5072130;28;20028;-74
2021/04/27 09:02:45;;;;;;;25.70;11.13;;;13.80;53.70;;;;;;5073451;28;20024;-74
2021/04/27 09:05:32;;;;;;;13.98;9.50;;;14.00;54.00;;;;;;5072263;28;20025;-74
2021/04/27 09:07:59;;;;;;;15.32;9.95;;;14.60;53.10;;;;;;5069560;28;20032;-74
2021/04/27 09:10:45;;;;;;;16.63;9.35;;;15.00;52.60;;;;;;5055539;28;20124;-73
2021/04/27 09:13:16;;;;;;;17.67;10.32;;;15.30;51.40;;;;;;5070228;28;20504;-74
2021/04/27 09:15:47;;;;;;;18.73;10.27;;;15.30;50.50;;;;;;5072354;28;20063;-74
2021/04/27 09:18:27;;;;;;;17.58;10.07;;;15.40;51.10;;;;;;5073065;28;20020;-73
2021/04/27 09:20:57;;;;;;;18.52;10.35;;;15.50;50.20;;;;;;5069832;28;20047;-73
2021/04/27 09:23:23;;;;;;;16.88;10.45;;;15.60;50.90;;;;;;5073134;28;20099;-73
2021/04/27 09:26:25;;;;;;;23.85;11.85;;;15.80;50.40;;;;;;5073007;28;20040;-73
2021/04/27 09:28:53;;;;;;;15.23;10.38;;;15.70;50.60;;;;;;5052728;28;20030;-73
2021/04/27 09:31:29;;;;;;;17.70;9.48;;;15.90;49.50;;;;;;5072477;28;20058;-73
2021/04/27 09:34:25;;;;;;;17.48;11.15;;;16.10;49.70;;;;;;5071059;28;20028;-73
2021/04/27 09:37:11;;;;;;;20.70;10.45;;;16.20;49.50;;;;;;5071257;28;20027;-73
2021/04/27 09:39:47;;;;;;;22.98;10.48;;;16.40;48.50;;;;;;5071389;28;20048;-73
2021/04/27 09:42:20;;;;;;;16.42;10.38;;;16.70;47.60;;;;;;5073424;28;20237;-73
2021/04/27 09:44:51;;;;;;;19.05;11.05;;;16.90;48.30;;;;;;5072535;28;20044;-74
2021/04/27 09:47:18;;;;;;;17.85;10.27;;;16.70;48.80;;;;;;5072706;28;20077;-74
2021/04/27 09:49:58;;;;;;;17.95;10.52;;;16.60;49.70;;;;;;5070850;28;20040;-74
2021/04/27 09:52:27;;;;;;;25.67;10.55;;;16.90;48.70;;;;;;5071302;28;20391;-74
2021/04/27 09:55:00;;;;;;;18.13;9.80;;;16.90;49.40;;;;;;5054853;28;20031;-75
2021/04/27 09:57:28;;;;;;;14.68;10.13;;;17.30;49.00;;;;;;5072536;28;20445;-75
2021/04/27 09:59:54;;;;;;;17.77;10.13;;;17.70;48.00;;;;;;5071656;28;20027;-74
2021/04/27 10:02:23;;;;;;;17.02;10.68;;;18.10;47.20;;;;;;5070862;28;20025;-75
2021/04/27 10:04:50;;;;;;;16.25;10.20;;;18.10;47.20;;;;;;5071304;28;20028;-74
2021/04/27 10:07:18;;;;;;;16.65;10.88;;;18.10;47.30;;;;;;5053580;28;20438;-74
2021/04/27 10:09:46;;;;;;;19.42;10.45;;;17.70;47.10;;;;;;5071916;28;20476;-74
2021/04/27 10:12:13;;;;;;;17.27;9.75;;;18.00;46.60;;;;;;5072154;28;20464;-75
2021/04/27 10:14:40;;;;;;;15.00;10.35;;;18.40;46.70;;;;;;5071806;28;20036;-75
2021/04/27 10:17:07;;;;;;;15.82;10.10;;;18.60;46.00;;;;;;5072700;28;20039;-75
2021/04/27 10:19:34;;;;;;;16.38;10.35;;;18.30;46.60;;;;;;5053951;28;20420;-75
2021/04/27 10:22:00;;;;;;;17.98;10.30;;;18.60;46.00;;;;;;5071422;28;20021;-75
2021/04/27 10:24:26;;;;;;;13.75;10.40;;;18.70;46.40;;;;;;5071066;28;20027;-74
2021/04/27 10:26:53;;;;;;;17.88;9.82;;;18.60;46.50;;;;;;5072321;28;20033;-75
2021/04/27 10:29:25;;;;;;;12.50;10.15;;;18.80;46.10;;;;;;5070875;28;20170;-75
2021/04/27 10:32:22;;;;;;;21.67;10.20;;;19.20;46.50;;;;;;5070594;28;20472;-75
2021/04/27 10:34:56;;;;;;;19.15;10.60;;;19.30;44.80;;;;;;5090717;28;20107;-75
2021/04/27 10:37:23;;;;;;;14.88;10.50;;;19.20;45.80;;;;;;5092868;28;20035;-74
2021/04/27 10:39:49;;;;;;;12.32;10.18;;;19.10;46.60;;;;;;5075310;28;20024;-74
2021/04/27 10:42:21;;;;;;;22.67;10.88;;;19.30;45.80;;;;;;5072658;28;20380;-75
2021/04/27 10:44:55;;;;;;;17.10;10.02;;;19.20;45.80;;;;;;5071494;28;20033;-75
2021/04/27 10:47:23;;;;;;;20.90;10.65;;;19.60;44.80;;;;;;5071026;28;20024;-74
2021/04/27 10:49:56;;;;;;;21.52;9.93;;;19.30;44.70;;;;;;5070638;28;20025;-75
2021/04/27 10:52:48;;;;;;;20.60;10.52;;;19.70;45.50;;;;;;5072395;28;20029;-75
2021/04/27 10:55:22;;;;;;;16.30;9.98;;;20.00;44.20;;;;;;5055317;28;20047;-75
2021/04/27 10:57:49;;;;;;;17.80;11.00;;;19.90;44.50;;;;;;5054457;28;20028;-75
2021/04/27 11:00:33;;;;;;;19.00;10.15;;;19.60;45.10;;;;;;5070908;28;20085;-74
2021/04/27 11:03:15;;;;;;;12.38;10.20;;;19.90;45.00;;;;;;5059000;28;20088;-74
2021/04/27 11:06:05;;;;;;;16.05;11.02;;;20.40;43.80;;;;;;5071555;28;20032;-74
2021/04/27 11:08:42;;;;;;;19.45;10.95;;;20.80;42.60;;;;;;5053573;28;20032;-74
2021/04/27 11:11:45;;;;;;;15.57;10.43;;;20.90;42.30;;;;;;5070830;28;20016;-74
2021/04/27 11:14:24;;;;;;;16.40;10.90;;;20.40;42.70;;;;;;5050489;28;20032;-74
2021/04/27 11:16:53;;;;;;;18.45;10.63;;;20.00;43.90;;;;;;5070403;28;20027;-74
2021/04/27 11:19:20;;;;;;;33.22;11.43;;;20.40;43.60;;;;;;5053655;28;20369;-74
2021/04/27 11:21:51;;;;;;;20.20;10.90;;;20.10;43.00;;;;;;5072101;28;20021;-74
2021/04/27 11:24:39;;;;;;;20.15;10.30;;;19.80;43.60;;;;;;5071508;28;20029;-74
2021/04/27 11:27:15;;;;;;;15.23;10.40;;;19.70;44.90;;;;;;5071985;28;20052;-74
2021/04/27 11:29:57;;;;;;;18.77;11.02;;;19.70;45.00;;;;;;5070818;28;20032;-74
2021/04/27 11:32:23;;;;;;;16.00;11.40;;;20.00;44.20;;;;;;5054105;28;20059;-74
2021/04/27 11:35:00;;;;;;;16.23;10.65;;;19.90;43.30;;;;;;5086576;28;20275;-74
2021/04/27 11:37:30;;;;;;;17.45;10.68;;;19.70;44.70;;;;;;5070561;28;20025;-74
2021/04/27 11:42:26;;;;;;;18.25;11.10;;;20.30;43.70;;;;;;5068386;28;20041;-75
2021/04/27 11:45:00;;;;;;;22.42;10.45;;;20.30;43.30;;;;;;5069594;28;20074;-75
2021/04/27 11:47:31;;;;;;;14.18;10.25;;;20.20;43.20;;;;;;5055029;28;20035;-75
2021/04/27 11:50:00;;;;;;;20.67;9.45;;;20.10;43.70;;;;;;5070784;28;20020;-75
2021/04/27 11:52:49;;;;;;;15.82;10.57;;;20.10;44.30;;;;;;5070260;28;20083;-75
2021/04/27 11:55:23;;;;;;;20.48;11.27;;;20.20;43.60;;;;;;5067020;28;20024;-75
2021/04/27 11:58:03;;;;;;;12.48;9.38;;;20.50;43.00;;;;;;5067285;28;20039;-75
2021/04/27 12:00:30;;;;;;;14.45;10.27;;;20.20;42.70;;;;;;5062586;28;20055;-75
2021/04/27 12:02:57;;;;;;;20.73;10.93;;;20.10;43.80;;;;;;5052206;28;20216;-75
2021/04/27 12:05:24;;;;;;;17.15;10.65;;;20.10;43.90;;;;;;5070216;28;20028;-75
2021/04/27 12:07:50;;;;;;;19.02;10.63;;;19.90;44.70;;;;;;5041021;28;20033;-75
2021/04/27 12:10:16;;;;;;;23.40;10.60;;;19.60;45.20;;;;;;5069987;28;20024;-75
2021/04/27 12:12:48;;;;;;;16.70;9.65;;;19.90;44.40;;;;;;5070419;28;20479;-75
2021/04/27 12:15:14;;;;;;;20.73;10.60;;;19.60;44.20;;;;;;5053795;28;20128;-75
2021/04/27 12:17:40;;;;;;;16.77;10.55;;;19.00;45.00;;;;;;5068101;28;20021;-75
2021/04/27 12:20:17;;;;;;;14.43;10.00;;;18.80;45.90;;;;;;5072934;28;20020;-75
2021/04/27 12:22:51;;;;;;;18.50;10.95;;;18.70;45.90;;;;;;5072939;28;20024;-75
2021/04/27 12:25:28;;;;;;;15.88;10.32;;;18.60;46.20;;;;;;5066352;28;20096;-75
2021/04/27 12:28:05;;;;;;;21.05;11.10;;;18.60;46.70;;;;;;5070033;28;20025;-75
2021/04/27 12:30:34;;;;;;;16.85;10.27;;;18.50;47.00;;;;;;5073407;28;20037;-75
2021/04/27 12:33:10;;;;;;;19.48;10.55;;;18.40;47.20;;;;;;5072785;28;20017;-75
2021/04/27 12:35:39;;;;;;;24.40;10.25;;;18.70;47.10;;;;;;5064590;28;20499;-75
2021/04/27 12:38:13;;;;;;;15.63;10.23;;;18.50;46.80;;;;;;5072940;28;20108;-75
2021/04/27 12:40:53;;;;;;;18.40;10.55;;;18.50;46.80;;;;;;5073185;28;20029;-75
2021/04/27 12:43:28;;;;;;;20.05;11.52;;;18.40;46.60;;;;;;5073025;28;20028;-75
2021/04/27 12:45:58;;;;;;;21.23;11.38;;;18.40;47.30;;;;;;5069053;28;20020;-75
2021/04/27 12:48:28;;;;;;;16.88;10.75;;;18.00;47.70;;;;;;5072626;28;20035;-75
2021/04/27 12:51:00;;;;;;;19.20;10.40;;;18.20;49.00;;;;;;5060340;28;20021;-75